Meloria — IBXK — position and weather

sailwx.info

Track history (hours):
 
Tides and Currents Weather Stations Pressure Air Temp Water Temp Dewpoint Dewpoint Depression Visibility Wind Speed Wind Dir Waves Ship Positions

Meloria

Last reported at 2015-Mar-03 14:24 UTC. Time now 2015-Mar-04 00:12 UTC.
Position N 38°19' E 015°18'.

Length 176 m; draft 10.6 m.

Type: Tanker. MMSI: 247171100.

Date/timePositionNaut miles runAvg speedWind from/ knotsBaromVisibWave heightAir tempDewpointWater temp
2015-Mar-03 14:24N 38°19' E 015°18'7 7.8
2015-Mar-03 13:32N 38°13' E 015°16'0 0.0
2015-Mar-03 12:32N 38°13' E 015°16'0 0.0
2015-Mar-03 11:32N 38°13' E 015°16'0 0.0
2015-Mar-03 10:32N 38°13' E 015°16'0 0.0
2015-Mar-03 09:32N 38°13' E 015°16'0 0.0
2015-Mar-03 08:32N 38°13' E 015°16'0 0.0
2015-Mar-03 07:32N 38°13' E 015°16'0 0.0
2015-Mar-03 06:32N 38°13' E 015°16'0 0.0
2015-Mar-02 18:26N 38°13' E 015°16'0 0.0
2015-Mar-02 17:32N 38°13' E 015°16'0 0.0
2015-Mar-02 16:32N 38°13' E 015°16'0 0.0
2015-Mar-02 15:32N 38°13' E 015°16'0 0.0
2015-Mar-02 14:32N 38°13' E 015°16'0 0.0
2015-Mar-02 13:32N 38°13' E 015°16'0 0.0
2015-Mar-02 12:32N 38°13' E 015°16'0 0.0
2015-Mar-02 11:32N 38°13' E 015°16'0 0.0
2015-Mar-02 10:32N 38°13' E 015°16'0 0.0
2015-Mar-02 09:32N 38°13' E 015°16'0 0.0
2015-Mar-02 08:32N 38°13' E 015°16'0 0.0
2015-Mar-02 07:31N 38°13' E 015°16'0 0.0
2015-Mar-02 06:31N 38°13' E 015°16'141 7.1
2015-Mar-01 10:33N 40°25' E 014°13'1212.4
2015-Mar-01 09:33N 40°37' E 014°10'1313.0
2015-Mar-01 08:33N 40°49' E 014°18'2 0.8
2015-Mar-01 06:25N 40°50' E 014°18'0 0.0
2015-Mar-01 04:22N 40°50' E 014°18'0 0.0
2015-Mar-01 03:31N 40°50' E 014°18'0 0.0
2015-Mar-01 02:19N 40°50' E 014°18'0 0.0
2015-Mar-01 01:13N 40°50' E 014°18'0 0.0
2015-Mar-01 00:31N 40°50' E 014°18'0 0.0
2015-Feb-28 23:31N 40°50' E 014°18'0 0.0
2015-Feb-28 22:28N 40°50' E 014°18'0 0.0
2015-Feb-28 21:28N 40°50' E 014°18'0 0.0
2015-Feb-28 20:31N 40°50' E 014°18'0 0.0
2015-Feb-28 19:31N 40°50' E 014°18'0 0.0
2015-Feb-28 18:28N 40°50' E 014°18'0 0.0
2015-Feb-28 17:25N 40°50' E 014°18'0 0.0
2015-Feb-28 16:13N 40°50' E 014°18'0 0.0
2015-Feb-28 15:28N 40°50' E 014°18'0 0.0
2015-Feb-28 14:25N 40°50' E 014°18'0 0.0
2015-Feb-28 13:27N 40°50' E 014°18'0 0.0
2015-Feb-28 12:12N 40°50' E 014°18'0 0.0
2015-Feb-28 10:12N 40°50' E 014°18'0 0.0
2015-Feb-28 09:33N 40°50' E 014°18'0 0.0
2015-Feb-28 04:03N 40°50' E 014°18'0 0.0
2015-Feb-28 03:15N 40°50' E 014°18'0 0.0
2015-Feb-28 02:15N 40°50' E 014°18'0 0.0
2015-Feb-28 01:27N 40°50' E 014°18'0 0.0
2015-Feb-28 00:18N 40°50' E 014°18'0 0.0
2015-Feb-27 23:30N 40°50' E 014°18'0 0.0
2015-Feb-27 22:03N 40°50' E 014°18'0 0.0
2015-Feb-27 21:27N 40°50' E 014°18'0 0.0
2015-Feb-27 20:33N 40°50' E 014°18'0 0.0
2015-Feb-27 19:15N 40°50' E 014°18'0 0.0
2015-Feb-27 17:21N 40°50' E 014°18'0 0.0
2015-Feb-27 15:09N 40°50' E 014°18'0 0.0
2015-Feb-27 13:33N 40°50' E 014°18'1 0.7
2015-Feb-27 12:33N 40°50' E 014°18'7 7.0
2015-Feb-27 11:33N 40°43' E 014°14'1211.9
2015-Feb-27 10:33N 40°32' E 014°08'1312.4
2015-Feb-27 09:30N 40°20' E 014°15'136 9.0
2015-Feb-26 18:29N 38°13' E 015°16'0 0.0
2015-Feb-26 17:29N 38°13' E 015°16'0 0.0
2015-Feb-26 16:29N 38°13' E 015°16'0 0.0
2015-Feb-26 15:29N 38°13' E 015°16'0 0.0
2015-Feb-26 14:29N 38°13' E 015°16'0 0.0
2015-Feb-26 13:29N 38°13' E 015°16'0 0.0
2015-Feb-26 12:29N 38°13' E 015°16'0 0.0
2015-Feb-26 11:29N 38°13' E 015°16'0 0.0
2015-Feb-26 10:29N 38°13' E 015°16'0 0.0
2015-Feb-26 09:29N 38°13' E 015°16'0 0.0
2015-Feb-26 08:29N 38°13' E 015°16'0 0.0
2015-Feb-26 07:29N 38°13' E 015°16'0 0.0
2015-Feb-25 17:29N 38°13' E 015°16'0 0.0
2015-Feb-25 16:29N 38°13' E 015°16'0 0.0
2015-Feb-25 15:29N 38°13' E 015°16'0 0.0
2015-Feb-25 14:29N 38°13' E 015°16'0 0.1
2015-Feb-25 13:33N 38°13' E 015°16'3 3.0
2015-Feb-25 12:33N 38°15' E 015°18'139 7.7
2015-Feb-24 18:31N 40°25' E 014°13'1111.1
2015-Feb-24 17:33N 40°35' E 014°08'1212.2
2015-Feb-24 16:33N 40°46' E 014°16'5 4.1
2015-Feb-24 15:26N 40°50' E 014°18'0 0.0
2015-Feb-24 14:32N 40°50' E 014°18'0 0.0
2015-Feb-24 13:26N 40°50' E 014°18'0 0.0
2015-Feb-24 11:08N 40°50' E 014°18'0 0.0
2015-Feb-24 10:14N 40°50' E 014°18'0 0.0
2015-Feb-24 09:14N 40°50' E 014°18'0 0.0
2015-Feb-24 08:28N 40°50' E 014°18'0 0.0
2015-Feb-24 07:25N 40°50' E 014°18'0 0.0
2015-Feb-24 05:04N 40°50' E 014°18'0 0.0
2015-Feb-24 03:28N 40°50' E 014°18'0 0.0
2015-Feb-24 02:07N 40°50' E 014°18'0 0.0
2015-Feb-24 01:25N 40°50' E 014°18'0 0.0
2015-Feb-24 00:19N 40°50' E 014°18'0 0.0
2015-Feb-23 23:31N 40°50' E 014°18'0 0.0
2015-Feb-23 22:19N 40°50' E 014°18'0 0.0
2015-Feb-23 21:31N 40°50' E 014°18'0 0.0
2015-Feb-23 20:25N 40°50' E 014°18'0 0.0
2015-Feb-23 18:28N 40°50' E 014°18'0 0.0
2015-Feb-23 16:13N 40°50' E 014°18'0 0.0
2015-Feb-23 15:25N 40°50' E 014°18'0 0.0
2015-Feb-23 14:10N 40°50' E 014°18'0 0.0
2015-Feb-23 13:16N 40°50' E 014°18'0 0.0
2015-Feb-23 12:28N 40°50' E 014°18'0 0.0
2015-Feb-23 11:22N 40°50' E 014°18'0 0.0
2015-Feb-23 10:22N 40°50' E 014°18'0 0.0
2015-Feb-23 08:19N 40°50' E 014°18'0 0.0
2015-Feb-23 06:31N 40°50' E 014°18'157 4.6
2015-Feb-21 20:31N 38°20' E 015°18'8 7.3
2015-Feb-21 19:28N 38°13' E 015°16'0 0.0
2015-Feb-21 18:28N 38°13' E 015°16'0 0.0
2015-Feb-21 17:28N 38°13' E 015°16'0 0.0
2015-Feb-21 16:28N 38°13' E 015°16'0 0.0
2015-Feb-21 15:34N 38°13' E 015°16'0 0.0
2015-Feb-21 14:34N 38°13' E 015°16'  
Track history (hours):
 
Tides and Currents Weather Stations Pressure Air Temp Water Temp Dewpoint Dewpoint Depression Visibility Wind Speed Wind Dir Waves Ship Positions

Meloria

Last reported at 2015-Mar-03 14:24 UTC. Time now 2015-Mar-04 00:12 UTC.
Position N 38°19' E 015°18'.

Length 176 m; draft 10.6 m.

Type: Tanker. MMSI: 247171100.

Date/timePositionNaut miles runAvg speedWind from/ knotsBaromVisibWave heightAir tempDewpointWater temp
2015-Mar-03 14:24N 38°19' E 015°18'7 7.8
2015-Mar-03 13:32N 38°13' E 015°16'0 0.0
2015-Mar-03 12:32N 38°13' E 015°16'0 0.0
2015-Mar-03 11:32N 38°13' E 015°16'0 0.0
2015-Mar-03 10:32N 38°13' E 015°16'0 0.0
2015-Mar-03 09:32N 38°13' E 015°16'0 0.0
2015-Mar-03 08:32N 38°13' E 015°16'0 0.0
2015-Mar-03 07:32N 38°13' E 015°16'0 0.0
2015-Mar-03 06:32N 38°13' E 015°16'0 0.0
2015-Mar-02 18:26N 38°13' E 015°16'0 0.0
2015-Mar-02 17:32N 38°13' E 015°16'0 0.0
2015-Mar-02 16:32N 38°13' E 015°16'0 0.0
2015-Mar-02 15:32N 38°13' E 015°16'0 0.0
2015-Mar-02 14:32N 38°13' E 015°16'0 0.0
2015-Mar-02 13:32N 38°13' E 015°16'0 0.0
2015-Mar-02 12:32N 38°13' E 015°16'0 0.0
2015-Mar-02 11:32N 38°13' E 015°16'0 0.0
2015-Mar-02 10:32N 38°13' E 015°16'0 0.0
2015-Mar-02 09:32N 38°13' E 015°16'0 0.0
2015-Mar-02 08:32N 38°13' E 015°16'0 0.0
2015-Mar-02 07:31N 38°13' E 015°16'0 0.0
2015-Mar-02 06:31N 38°13' E 015°16'141 7.1
2015-Mar-01 10:33N 40°25' E 014°13'1212.4
2015-Mar-01 09:33N 40°37' E 014°10'1313.0
2015-Mar-01 08:33N 40°49' E 014°18'2 0.8
2015-Mar-01 06:25N 40°50' E 014°18'0 0.0
2015-Mar-01 04:22N 40°50' E 014°18'0 0.0
2015-Mar-01 03:31N 40°50' E 014°18'0 0.0
2015-Mar-01 02:19N 40°50' E 014°18'0 0.0
2015-Mar-01 01:13N 40°50' E 014°18'0 0.0
2015-Mar-01 00:31N 40°50' E 014°18'0 0.0
2015-Feb-28 23:31N 40°50' E 014°18'0 0.0
2015-Feb-28 22:28N 40°50' E 014°18'0 0.0
2015-Feb-28 21:28N 40°50' E 014°18'0 0.0
2015-Feb-28 20:31N 40°50' E 014°18'0 0.0
2015-Feb-28 19:31N 40°50' E 014°18'0 0.0
2015-Feb-28 18:28N 40°50' E 014°18'0 0.0
2015-Feb-28 17:25N 40°50' E 014°18'0 0.0
2015-Feb-28 16:13N 40°50' E 014°18'0 0.0
2015-Feb-28 15:28N 40°50' E 014°18'0 0.0
2015-Feb-28 14:25N 40°50' E 014°18'0 0.0
2015-Feb-28 13:27N 40°50' E 014°18'0 0.0
2015-Feb-28 12:12N 40°50' E 014°18'0 0.0
2015-Feb-28 10:12N 40°50' E 014°18'0 0.0
2015-Feb-28 09:33N 40°50' E 014°18'0 0.0
2015-Feb-28 04:03N 40°50' E 014°18'0 0.0
2015-Feb-28 03:15N 40°50' E 014°18'0 0.0
2015-Feb-28 02:15N 40°50' E 014°18'0 0.0
2015-Feb-28 01:27N 40°50' E 014°18'0 0.0
2015-Feb-28 00:18N 40°50' E 014°18'0 0.0
2015-Feb-27 23:30N 40°50' E 014°18'0 0.0
2015-Feb-27 22:03N 40°50' E 014°18'0 0.0
2015-Feb-27 21:27N 40°50' E 014°18'0 0.0
2015-Feb-27 20:33N 40°50' E 014°18'0 0.0
2015-Feb-27 19:15N 40°50' E 014°18'0 0.0
2015-Feb-27 17:21N 40°50' E 014°18'0 0.0
2015-Feb-27 15:09N 40°50' E 014°18'0 0.0
2015-Feb-27 13:33N 40°50' E 014°18'1 0.7
2015-Feb-27 12:33N 40°50' E 014°18'7 7.0
2015-Feb-27 11:33N 40°43' E 014°14'1211.9
2015-Feb-27 10:33N 40°32' E 014°08'1312.4
2015-Feb-27 09:30N 40°20' E 014°15'136 9.0
2015-Feb-26 18:29N 38°13' E 015°16'0 0.0
2015-Feb-26 17:29N 38°13' E 015°16'0 0.0
2015-Feb-26 16:29N 38°13' E 015°16'0 0.0
2015-Feb-26 15:29N 38°13' E 015°16'0 0.0
2015-Feb-26 14:29N 38°13' E 015°16'0 0.0
2015-Feb-26 13:29N 38°13' E 015°16'0 0.0
2015-Feb-26 12:29N 38°13' E 015°16'0 0.0
2015-Feb-26 11:29N 38°13' E 015°16'0 0.0
2015-Feb-26 10:29N 38°13' E 015°16'0 0.0
2015-Feb-26 09:29N 38°13' E 015°16'0 0.0
2015-Feb-26 08:29N 38°13' E 015°16'0 0.0
2015-Feb-26 07:29N 38°13' E 015°16'0 0.0
2015-Feb-25 17:29N 38°13' E 015°16'0 0.0
2015-Feb-25 16:29N 38°13' E 015°16'0 0.0
2015-Feb-25 15:29N 38°13' E 015°16'0 0.0
2015-Feb-25 14:29N 38°13' E 015°16'0 0.1
2015-Feb-25 13:33N 38°13' E 015°16'3 3.0
2015-Feb-25 12:33N 38°15' E 015°18'139 7.7
2015-Feb-24 18:31N 40°25' E 014°13'1111.1
2015-Feb-24 17:33N 40°35' E 014°08'1212.2
2015-Feb-24 16:33N 40°46' E 014°16'5 4.1
2015-Feb-24 15:26N 40°50' E 014°18'0 0.0
2015-Feb-24 14:32N 40°50' E 014°18'0 0.0
2015-Feb-24 13:26N 40°50' E 014°18'0 0.0
2015-Feb-24 11:08N 40°50' E 014°18'0 0.0
2015-Feb-24 10:14N 40°50' E 014°18'0 0.0
2015-Feb-24 09:14N 40°50' E 014°18'0 0.0
2015-Feb-24 08:28N 40°50' E 014°18'0 0.0
2015-Feb-24 07:25N 40°50' E 014°18'0 0.0
2015-Feb-24 05:04N 40°50' E 014°18'0 0.0
2015-Feb-24 03:28N 40°50' E 014°18'0 0.0
2015-Feb-24 02:07N 40°50' E 014°18'0 0.0
2015-Feb-24 01:25N 40°50' E 014°18'0 0.0
2015-Feb-24 00:19N 40°50' E 014°18'0 0.0
2015-Feb-23 23:31N 40°50' E 014°18'0 0.0
2015-Feb-23 22:19N 40°50' E 014°18'0 0.0
2015-Feb-23 21:31N 40°50' E 014°18'0 0.0
2015-Feb-23 20:25N 40°50' E 014°18'0 0.0
2015-Feb-23 18:28N 40°50' E 014°18'0 0.0
2015-Feb-23 16:13N 40°50' E 014°18'0 0.0
2015-Feb-23 15:25N 40°50' E 014°18'0 0.0
2015-Feb-23 14:10N 40°50' E 014°18'0 0.0
2015-Feb-23 13:16N 40°50' E 014°18'0 0.0
2015-Feb-23 12:28N 40°50' E 014°18'0 0.0
2015-Feb-23 11:22N 40°50' E 014°18'0 0.0
2015-Feb-23 10:22N 40°50' E 014°18'0 0.0
2015-Feb-23 08:19N 40°50' E 014°18'0 0.0
2015-Feb-23 06:31N 40°50' E 014°18'157 4.6
2015-Feb-21 20:31N 38°20' E 015°18'8 7.3
2015-Feb-21 19:28N 38°13' E 015°16'0 0.0
2015-Feb-21 18:28N 38°13' E 015°16'0 0.0
2015-Feb-21 17:28N 38°13' E 015°16'0 0.0
2015-Feb-21 16:28N 38°13' E 015°16'0 0.0
2015-Feb-21 15:34N 38°13' E 015°16'0 0.0
2015-Feb-21 14:34N 38°13' E 015°16'  

Dump ship's entire track history